Terminal Aerodrome Forecast
Issued by NWS Wilmington, OH

Current Version | Previous Version | Graphics & Text | Print | Product List | Glossary On
Versions: 1 2 3 4 5 6 7 8 9 10 11 12 13 14 15 16 17 18 19 20 21 22 23 24
551
FTUS41 KILN 231618 AAB
TAFCVG
TAF AMD
KCVG 231618Z 2316/2418 21012KT P6SM BKN015 BKN250
     FM231800 21010KT P6SM BKN025
     FM232000 21007KT P6SM BKN035
     FM240000 17006KT P6SM BKN090
     FM240600 18009KT P6SM OVC025
     FM241300 19013G23KT P6SM BKN035=

USA.gov is the U.S. government's official web portal to all federal, state and local government web resources and services.